Time;durP1;ratioP1;P1;durP2;ratioP2;P2;SDS_P1;SDS_P2;PMS_P1;PMS_P2;Temp;Humidity;BMP_temperature;BMP_pressure;BME280_temperature;BME280_humidity;BME280_pressure;Samples;Min_cycle;Max_cycle;Signal;HPM_P1;HPM_P2
2023/06/01 00:00:39;;;;;;;14.65;4.57;;;10.90;3.70;;;;;;5015268;28;20484;-28
2023/06/01 00:03:04;;;;;;;15.93;4.35;;;11.00;43.60;;;;;;5031965;28;20397;-29
2023/06/01 00:05:30;;;;;;;11.43;4.78;;;10.90;24.60;;;;;;5015120;28;20053;-28
2023/06/01 00:07:56;;;;;;;13.35;4.78;;;10.90;48.20;;;;;;5033030;28;20054;-28
2023/06/01 00:10:21;;;;;;;14.38;5.18;;;11.00;24.90;;;;;;5033318;28;20084;-28
2023/06/01 00:12:47;;;;;;;11.52;5.15;;;10.90;62.70;;;;;;5033289;28;20385;-28
2023/06/01 00:15:13;;;;;;;11.93;5.07;;;11.00;65.10;;;;;;5018829;28;20049;-28
2023/06/01 00:17:38;;;;;;;15.63;4.50;;;10.90;96.70;;;;;;5018835;28;20073;-28
2023/06/01 00:20:08;;;;;;;13.15;4.85;;;10.90;65.30;;;;;;5036503;28;20045;-28
2023/06/01 00:22:38;;;;;;;10.98;4.53;;;10.80;44.10;;;;;;5035359;28;20408;-29
2023/06/01 00:25:06;;;;;;;12.10;5.28;;;10.80;24.60;;;;;;5036818;28;20382;-28
2023/06/01 00:27:32;;;;;;;12.57;5.10;;;10.80;6.70;;;;;;5019293;28;20037;-28
2023/06/01 00:29:58;;;;;;;15.95;4.60;;;10.80;65.60;;;;;;5036461;28;20488;-28
2023/06/01 00:32:23;;;;;;;13.27;4.95;;;10.80;55.80;;;;;;5036373;28;20045;-28
2023/06/01 00:34:49;;;;;;;18.70;6.35;;;10.80;4.90;;;;;;5036299;28;20401;-29
2023/06/01 00:37:15;;;;;;;11.25;4.88;;;10.90;40.70;;;;;;5036229;28;20056;-28
2023/06/01 00:39:41;;;;;;;14.23;5.03;;;10.80;51.10;;;;;;5036442;28;20045;-28
2023/06/01 00:42:06;;;;;;;13.63;5.43;;;10.80;70.90;;;;;;5036160;28;20042;-28
2023/06/01 00:44:32;;;;;;;13.63;4.75;;;10.80;93.90;;;;;;5036130;28;20052;-28
2023/06/01 00:46:59;;;;;;;17.50;5.28;;;10.80;64.70;;;;;;5019419;28;20372;-28
2023/06/01 00:49:25;;;;;;;17.95;5.40;;;10.80;48.40;;;;;;5018470;28;20050;-29
2023/06/01 00:51:52;;;;;;;12.20;5.03;;;10.80;90.60;;;;;;5036831;28;20068;-28
2023/06/01 00:54:19;;;;;;;14.07;5.68;;;10.80;63.70;;;;;;5036178;28;20386;-28
2023/06/01 00:56:45;;;;;;;14.88;5.53;;;10.80;99.90;;;;;;5035841;28;20050;-28
2023/06/01 00:59:12;;;;;;;12.40;5.32;;;10.80;99.90;;;;;;5035723;28;20052;-28
2023/06/01 01:01:38;;;;;;;13.38;5.20;;;10.80;92.60;;;;;;5035756;28;20073;-27
2023/06/01 01:04:04;;;;;;;11.57;4.65;;;10.70;73.60;;;;;;5035464;28;20099;-28
2023/06/01 01:06:36;;;;;;;17.80;6.07;;;10.70;74.10;;;;;;5036299;28;20098;-28
2023/06/01 01:09:01;;;;;;;13.88;4.45;;;10.70;44.40;;;;;;5035766;28;20138;-28
2023/06/01 01:11:30;;;;;;;16.13;4.60;;;10.70;92.00;;;;;;5035676;28;20084;-28
2023/06/01 01:14:07;;;;;;;12.07;3.92;;;10.70;64.10;;;;;;5035581;28;20098;-28
2023/06/01 01:16:45;;;;;;;13.38;5.13;;;10.70;99.10;;;;;;5035278;28;20413;-28
2023/06/01 01:19:35;;;;;;;10.63;4.47;;;10.70;96.70;;;;;;5017764;28;20056;-27
2023/06/01 01:22:26;;;;;;;10.05;4.15;;;10.60;85.50;;;;;;5034391;28;20053;-28
2023/06/01 01:25:10;;;;;;;10.50;4.50;;;10.60;82.50;;;;;;5035420;28;20453;-28
2023/06/01 01:27:37;;;;;;;7.75;4.10;;;10.60;45.00;;;;;;5035270;28;20452;-29
2023/06/01 01:30:06;;;;;;;9.98;4.05;;;10.60;27.30;;;;;;5035305;28;20124;-28
2023/06/01 01:32:35;;;;;;;10.63;4.30;;;10.50;39.10;;;;;;5035231;28;20057;-28
2023/06/01 01:35:01;;;;;;;7.32;3.55;;;10.60;35.90;;;;;;5033968;28;20496;-28
2023/06/01 01:37:27;;;;;;;10.88;4.20;;;10.50;57.30;;;;;;5035668;28;20091;-28
2023/06/01 01:39:53;;;;;;;9.98;4.00;;;10.50;99.90;;;;;;5035248;28;20051;-28
2023/06/01 01:42:19;;;;;;;10.80;3.88;;;10.60;97.60;;;;;;5035029;28;20041;-28
2023/06/01 01:44:45;;;;;;;9.82;3.80;;;10.60;99.90;;;;;;5034067;28;20052;-28
2023/06/01 01:47:30;;;;;;;10.57;3.90;;;10.60;99.90;;;;;;5034955;28;20048;-29
2023/06/01 01:50:03;;;;;;;7.78;3.20;;;10.60;99.90;;;;;;5035527;28;20080;-28
2023/06/01 01:52:40;;;;;;;11.33;3.70;;;10.60;99.90;;;;;;5035631;28;20382;-29
2023/06/01 01:55:09;;;;;;;6.82;3.13;;;10.60;99.90;;;;;;5035034;28;20651;-28
2023/06/01 01:57:35;;;;;;;8.05;3.80;;;10.60;99.90;;;;;;5033611;28;20568;-29
2023/06/01 02:00:07;;;;;;;10.30;4.00;;;10.70;94.10;;;;;;5034608;28;20504;-27
2023/06/01 02:02:33;;;;;;;8.95;3.15;;;10.60;99.90;;;;;;5034718;28;20100;-28
2023/06/01 02:04:58;;;;;;;9.98;3.28;;;10.60;70.90;;;;;;5034291;28;20049;-28
2023/06/01 02:07:24;;;;;;;9.73;4.20;;;10.60;68.10;;;;;;5034542;28;20053;-28
2023/06/01 02:09:50;;;;;;;8.82;4.03;;;10.60;91.00;;;;;;5034483;28;20492;-29
2023/06/01 02:12:16;;;;;;;8.80;2.92;;;10.60;95.90;;;;;;5034325;28;20045;-28
2023/06/01 02:14:42;;;;;;;8.35;2.60;;;10.60;75.30;;;;;;5034434;28;20052;-28
2023/06/01 02:17:07;;;;;;;9.82;2.85;;;10.50;98.50;;;;;;5034378;28;20045;-28
2023/06/01 02:19:34;;;;;;;10.95;3.05;;;10.60;99.90;;;;;;5034214;28;20099;-28
2023/06/01 02:21:59;;;;;;;8.95;2.80;;;10.60;81.30;;;;;;5016699;28;20540;-28
2023/06/01 02:24:25;;;;;;;3.25;2.40;;;10.60;91.10;;;;;;5034239;28;20137;-28
2023/06/01 02:26:55;;;;;;;9.50;3.10;;;10.60;88.80;;;;;;5016852;28;20140;-28
2023/06/01 02:29:22;;;;;;;6.40;2.97;;;10.60;72.60;;;;;;5034717;28;20049;-28
2023/06/01 02:31:52;;;;;;;12.05;2.92;;;10.70;72.40;;;;;;5032951;28;20052;-28
2023/06/01 02:34:18;;;;;;;8.93;3.10;;;10.60;74.80;;;;;;5034665;28;20061;-28
2023/06/01 02:36:44;;;;;;;8.30;2.92;;;10.70;92.70;;;;;;5033759;28;20563;-30
2023/06/01 02:39:10;;;;;;;11.00;3.45;;;10.60;99.90;;;;;;5034022;28;20461;-28
2023/06/01 02:41:36;;;;;;;11.13;3.60;;;10.70;99.90;;;;;;5033918;28;20129;-28
2023/06/01 02:44:02;;;;;;;6.15;4.15;;;10.70;99.90;;;;;;5034517;28;20045;-28
2023/06/01 02:46:28;;;;;;;12.48;4.10;;;10.60;99.80;;;;;;5033851;28;20485;-28
2023/06/01 02:48:54;;;;;;;7.88;4.00;;;10.60;99.90;;;;;;5034675;28;20072;-28
2023/06/01 02:51:19;;;;;;;9.05;3.25;;;10.60;99.90;;;;;;5034127;28;20456;-28
2023/06/01 02:53:48;;;;;;;10.45;3.80;;;10.60;99.90;;;;;;5033830;28;20503;-28
2023/06/01 02:56:15;;;;;;;7.35;2.90;;;10.60;86.10;;;;;;5032653;28;20057;-30
2023/06/01 02:58:42;;;;;;;9.32;3.00;;;10.60;39.30;;;;;;5033799;28;20045;-28
2023/06/01 03:01:11;;;;;;;7.90;3.10;;;10.70;26.10;;;;;;5033647;28;20107;-27
2023/06/01 03:03:38;;;;;;;8.60;3.88;;;10.60;14.60;;;;;;5032533;28;20056;-28
2023/06/01 03:06:05;;;;;;;8.80;3.40;;;10.70;33.40;;;;;;5033644;28;20049;-29
2023/06/01 03:08:31;;;;;;;9.15;3.75;;;10.70;65.60;;;;;;5033610;28;20053;-28
2023/06/01 03:10:58;;;;;;;11.50;4.43;;;10.60;39.80;;;;;;5034735;28;20064;-28
2023/06/01 03:13:23;;;;;;;9.32;3.67;;;10.60;41.70;;;;;;5033634;28;20175;-28
2023/06/01 03:15:50;;;;;;;15.43;4.63;;;10.60;44.60;;;;;;5033257;28;20132;-28
2023/06/01 03:18:16;;;;;;;11.63;5.65;;;10.60;44.10;;;;;;5032461;28;20397;-27
2023/06/01 03:20:42;;;;;;;7.95;4.35;;;10.60;41.80;;;;;;5032167;28;20045;-26
2023/06/01 03:23:08;;;;;;;10.57;4.40;;;10.60;51.90;;;;;;5032141;28;20054;-28
2023/06/01 03:25:33;;;;;;;16.05;5.32;;;10.60;59.30;;;;;;5033453;28;20218;-28
2023/06/01 03:27:59;;;;;;;14.35;4.85;;;10.60;36.90;;;;;;5033439;28;20046;-28
2023/06/01 03:30:25;;;;;;;16.77;5.07;;;10.70;36.80;;;;;;5033697;28;20072;-28
2023/06/01 03:32:51;;;;;;;12.40;4.50;;;10.70;54.10;;;;;;5032194;28;20493;-28
2023/06/01 03:35:17;;;;;;;15.75;4.20;;;10.70;76.20;;;;;;5033413;28;20045;-27
2023/06/01 03:37:45;;;;;;;13.52;4.70;;;10.70;96.60;;;;;;5033628;28;20042;-29
2023/06/01 03:40:11;;;;;;;19.90;5.13;;;10.70;71.20;;;;;;5032879;28;20489;-28
2023/06/01 03:42:41;;;;;;;12.50;4.60;;;10.70;79.80;;;;;;5032657;28;20095;-28
2023/06/01 03:45:08;;;;;;;14.40;5.15;;;10.70;99.90;;;;;;5015639;28;20085;-27
2023/06/01 03:47:35;;;;;;;15.38;4.95;;;10.60;99.90;;;;;;5032597;28;20058;-28
2023/06/01 03:50:01;;;;;;;9.25;4.22;;;10.70;99.90;;;;;;5018420;28;20397;-28
2023/06/01 03:52:28;;;;;;;21.08;6.07;;;10.70;99.30;;;;;;5037132;28;20049;-29
2023/06/01 03:54:58;;;;;;;20.75;4.82;;;10.70;92.00;;;;;;5037041;28;20049;-28
2023/06/01 03:57:24;;;;;;;21.10;5.68;;;10.80;94.10;;;;;;5020072;28;20046;-28
2023/06/01 03:59:51;;;;;;;11.77;4.78;;;10.80;93.60;;;;;;5019466;28;20182;-28
2023/06/01 04:02:18;;;;;;;13.27;4.00;;;10.90;99.90;;;;;;5036896;28;20132;-28
2023/06/01 04:04:45;;;;;;;12.15;4.53;;;10.80;99.90;;;;;;5036824;28;20049;-28
2023/06/01 04:07:14;;;;;;;15.85;4.63;;;10.70;99.90;;;;;;5036762;28;20084;-28
2023/06/01 04:09:41;;;;;;;10.35;4.53;;;10.80;99.90;;;;;;5037569;28;20063;-29
2023/06/01 04:12:07;;;;;;;15.23;5.28;;;10.80;91.50;;;;;;5035572;28;20049;-28
2023/06/01 04:14:32;;;;;;;11.25;5.13;;;10.70;91.10;;;;;;5037230;28;20493;-28
2023/06/01 04:16:58;;;;;;;11.93;4.85;;;10.70;94.90;;;;;;5036677;28;20108;-28
2023/06/01 04:19:24;;;;;;;10.45;4.30;;;10.80;94.30;;;;;;5036559;28;20119;-28
2023/06/01 04:21:50;;;;;;;11.25;5.30;;;10.70;93.30;;;;;;5036508;28;20057;-28
2023/06/01 04:24:16;;;;;;;8.85;3.97;;;10.70;97.50;;;;;;5035081;28;20053;-28
2023/06/01 04:26:41;;;;;;;13.68;5.53;;;10.70;92.30;;;;;;5036415;28;20507;-28
2023/06/01 04:29:11;;;;;;;12.88;3.92;;;10.70;96.60;;;;;;5037189;28;20124;-28
2023/06/01 04:31:38;;;;;;;9.75;3.60;;;10.80;91.30;;;;;;5035244;28;20124;-28
2023/06/01 04:34:05;;;;;;;12.73;5.18;;;10.70;99.90;;;;;;5018980;28;20041;-28
2023/06/01 04:36:38;;;;;;;11.02;4.00;;;10.70;99.90;;;;;;5036280;28;20041;-28
2023/06/01 04:39:07;;;;;;;;;;;10.80;99.90;;;;;;5036723;28;20049;-28
2023/06/01 04:41:34;;;;;;;8.63;4.22;;;10.90;99.90;;;;;;5036171;28;19921;-28
2023/06/01 04:44:05;;;;;;;9.93;4.65;;;10.80;99.90;;;;;;5035022;28;20053;-29
2023/06/01 04:46:31;;;;;;;10.50;4.88;;;10.80;91.90;;;;;;5036994;28;20046;-28
2023/06/01 04:48:58;;;;;;;12.00;5.30;;;10.90;97.10;;;;;;5019165;28;20068;-28
2023/06/01 04:51:24;;;;;;;10.98;4.07;;;10.90;99.90;;;;;;5034868;28;20451;-28
2023/06/01 04:53:52;;;;;;;10.05;4.32;;;10.90;99.90;;;;;;5035955;28;20132;-28
2023/06/01 04:56:18;;;;;;;7.10;3.83;;;10.90;99.90;;;;;;5035876;28;20503;-29
2023/06/01 04:58:47;;;;;;;9.63;3.60;;;11.00;99.90;;;;;;5035801;28;20045;-27
2023/06/01 05:01:15;;;;;;;10.45;3.55;;;11.00;99.90;;;;;;5035664;28;20048;-28
2023/06/01 05:03:45;;;;;;;17.23;5.43;;;11.00;99.90;;;;;;5035470;28;20401;-28
2023/06/01 05:06:13;;;;;;;11.05;4.25;;;11.00;99.90;;;;;;5034773;28;20045;-28
2023/06/01 05:08:39;;;;;;;13.52;4.53;;;11.00;99.90;;;;;;5035377;28;20485;-28
2023/06/01 05:11:06;;;;;;;18.02;4.80;;;11.00;99.90;;;;;;5035621;28;20077;-28
2023/06/01 05:13:40;;;;;;;9.55;4.57;;;11.00;99.90;;;;;;5035628;28;20050;-28
2023/06/01 05:16:08;;;;;;;7.45;3.85;;;11.00;99.90;;;;;;5036445;28;20056;-28
2023/06/01 05:18:35;;;;;;;7.28;4.00;;;11.00;99.90;;;;;;5035407;28;20057;-28
2023/06/01 05:21:01;;;;;;;10.00;4.32;;;11.00;99.90;;;;;;5034115;28;20061;-28
2023/06/01 05:23:28;;;;;;;9.02;4.50;;;10.90;99.90;;;;;;5035013;28;20100;-28
2023/06/01 05:25:59;;;;;;;7.47;4.15;;;11.00;99.90;;;;;;5035902;28;20052;-29
2023/06/01 05:28:25;;;;;;;14.82;4.40;;;11.00;99.90;;;;;;5035414;28;20081;-28
2023/06/01 05:30:51;;;;;;;8.68;4.30;;;11.00;99.90;;;;;;5035284;28;20128;-28
2023/06/01 05:33:16;;;;;;;12.77;4.18;;;11.00;99.90;;;;;;5036037;28;20049;-28
2023/06/01 05:35:42;;;;;;;9.73;3.83;;;11.00;99.90;;;;;;5034242;28;20042;-28
2023/06/01 05:38:08;;;;;;;7.30;3.05;;;11.10;99.90;;;;;;5035160;28;20045;-28
2023/06/01 05:40:35;;;;;;;6.88;3.50;;;11.10;99.90;;;;;;5033781;28;20527;-29
2023/06/01 05:43:01;;;;;;;7.75;3.92;;;11.20;99.90;;;;;;5035022;28;20045;-28
2023/06/01 05:45:27;;;;;;;9.38;3.65;;;11.20;99.90;;;;;;5035034;28;20049;-28
2023/06/01 05:47:53;;;;;;;7.22;3.20;;;11.30;99.90;;;;;;5035786;28;20056;-28
2023/06/01 05:50:19;;;;;;;5.13;2.60;;;11.30;99.90;;;;;;5033785;28;20041;-28
2023/06/01 05:52:45;;;;;;;11.20;3.63;;;11.30;99.90;;;;;;5034537;28;20053;-28
2023/06/01 05:55:10;;;;;;;7.60;3.00;;;11.30;99.90;;;;;;5034236;28;20089;-28
2023/06/01 05:57:36;;;;;;;8.40;3.80;;;11.40;99.90;;;;;;5034755;28;20095;-28
2023/06/01 06:00:07;;;;;;;11.98;3.80;;;11.50;99.90;;;;;;5034659;28;20080;-28
2023/06/01 06:02:33;;;;;;;9.02;3.28;;;11.50;99.90;;;;;;5035302;28;20061;-28
2023/06/01 06:04:59;;;;;;;9.43;3.05;;;11.50;99.90;;;;;;5033672;28;20045;-28
2023/06/01 06:07:24;;;;;;;8.80;3.10;;;11.50;99.90;;;;;;5033570;28;20503;-29
2023/06/01 06:09:50;;;;;;;6.63;2.72;;;11.60;99.90;;;;;;5034535;28;20114;-27
2023/06/01 06:12:16;;;;;;;8.73;2.85;;;11.60;99.90;;;;;;5033659;28;20104;-28
2023/06/01 06:14:42;;;;;;;7.68;2.92;;;11.60;99.90;;;;;;5033309;28;20099;-28
2023/06/01 06:17:08;;;;;;;7.97;2.50;;;11.50;99.90;;;;;;5034359;28;20041;-28
2023/06/01 06:19:34;;;;;;;5.00;2.58;;;11.60;99.90;;;;;;5016938;28;20127;-28
2023/06/01 06:21:59;;;;;;;17.33;3.83;;;11.40;99.90;;;;;;5034163;28;20498;-28
2023/06/01 06:24:25;;;;;;;10.65;2.92;;;11.40;99.90;;;;;;5034277;28;20055;-28
2023/06/01 06:26:51;;;;;;;6.13;2.20;;;11.40;99.90;;;;;;5033232;28;20047;-28
2023/06/01 06:29:17;;;;;;;8.05;2.92;;;11.40;99.90;;;;;;5034443;28;20187;-29
2023/06/01 06:31:43;;;;;;;4.05;1.30;;;11.40;99.90;;;;;;5034692;28;20462;-27
2023/06/01 06:34:09;;;;;;;3.17;1.30;;;11.50;99.90;;;;;;5033133;28;20081;-28
2023/06/01 06:36:34;;;;;;;4.05;1.55;;;11.60;99.90;;;;;;5034049;28;20065;-28
2023/06/01 06:39:00;;;;;;;3.22;1.60;;;11.80;99.90;;;;;;5033714;28;20056;-28
2023/06/01 06:41:26;;;;;;;5.45;2.15;;;11.70;99.90;;;;;;5033991;28;20045;-28
2023/06/01 06:43:52;;;;;;;5.47;1.85;;;11.90;99.90;;;;;;5033724;28;20099;-28
2023/06/01 06:46:17;;;;;;;5.78;1.85;;;11.70;99.90;;;;;;5033287;28;20049;-29
2023/06/01 06:48:43;;;;;;;5.38;2.42;;;11.60;99.90;;;;;;5034460;28;20115;-28
2023/06/01 06:51:09;;;;;;;6.10;2.17;;;11.60;99.90;;;;;;5032905;28;20132;-28
2023/06/01 06:53:35;;;;;;;4.03;1.95;;;11.50;99.90;;;;;;5033827;28;20057;-28
2023/06/01 06:56:00;;;;;;;4.85;1.73;;;11.40;99.90;;;;;;5032807;28;20053;-28
2023/06/01 06:58:27;;;;;;;8.38;2.25;;;11.40;99.90;;;;;;5034011;28;20045;-28
2023/06/01 07:00:53;;;;;;;5.28;2.20;;;11.40;99.90;;;;;;5016180;28;20081;-27
2023/06/01 07:03:19;;;;;;;7.03;2.30;;;11.50;99.90;;;;;;5032470;28;20045;-27
2023/06/01 07:05:45;;;;;;;6.05;2.20;;;11.60;99.90;;;;;;5032456;28;20053;-28
2023/06/01 07:08:11;;;;;;;3.55;1.85;;;11.70;99.90;;;;;;5016264;28;20140;-29
2023/06/01 07:10:37;;;;;;;7.22;2.28;;;11.70;99.90;;;;;;5033616;28;20077;-29
2023/06/01 07:13:02;;;;;;;3.35;1.63;;;11.60;99.90;;;;;;5033577;28;20056;-29
2023/06/01 07:15:28;;;;;;;4.40;1.88;;;11.60;99.90;;;;;;5033468;28;20046;-28
2023/06/01 07:17:54;;;;;;;6.95;2.47;;;11.60;99.90;;;;;;5033413;28;20056;-29
2023/06/01 07:20:20;;;;;;;4.93;2.40;;;11.60;99.90;;;;;;5034017;28;20045;-28
2023/06/01 07:22:45;;;;;;;8.20;2.13;;;11.70;99.90;;;;;;5031962;28;20088;-28
2023/06/01 07:25:13;;;;;;;4.55;1.83;;;11.60;99.90;;;;;;5036890;28;20449;-28
2023/06/01 07:27:43;;;;;;;3.97;1.98;;;11.60;99.90;;;;;;5037855;28;20060;-28
2023/06/01 07:30:10;;;;;;;5.93;2.35;;;11.70;99.90;;;;;;5037493;28;20060;-28
2023/06/01 07:32:36;;;;;;;5.10;1.90;;;11.70;99.90;;;;;;5036324;28;20136;-28
2023/06/01 07:35:04;;;;;;;3.55;1.92;;;11.60;99.90;;;;;;5037417;28;20045;-28
2023/06/01 07:37:31;;;;;;;5.88;1.40;;;11.80;99.90;;;;;;5037454;28;20049;-28
2023/06/01 07:39:57;;;;;;;2.17;1.00;;;11.90;99.90;;;;;;5037308;28;20099;-28
2023/06/01 07:42:23;;;;;;;4.90;1.67;;;11.80;99.90;;;;;;5037386;28;20572;-28
2023/06/01 07:44:50;;;;;;;4.47;1.17;;;11.80;99.90;;;;;;5037299;28;20089;-27
2023/06/01 07:47:16;;;;;;;7.88;1.20;;;12.00;99.90;;;;;;5037233;28;20092;-28
2023/06/01 07:49:41;;;;;;;4.57;1.17;;;12.10;99.90;;;;;;5036916;28;20460;-27
2023/06/01 07:52:07;;;;;;;4.45;1.60;;;11.90;99.90;;;;;;5037116;28;20111;-28
2023/06/01 07:54:37;;;;;;;7.30;2.00;;;12.00;99.90;;;;;;5037416;28;20469;-28
2023/06/01 07:57:04;;;;;;;4.45;1.60;;;12.00;99.90;;;;;;5037332;28;20068;-28
2023/06/01 07:59:31;;;;;;;8.43;2.30;;;12.10;99.90;;;;;;5036417;28;20045;-27
2023/06/01 08:01:58;;;;;;;6.38;2.45;;;11.90;99.90;;;;;;5036640;28;20400;-27
2023/06/01 08:04:24;;;;;;;8.05;2.40;;;11.90;99.90;;;;;;5037215;28;20488;-28
2023/06/01 08:06:52;;;;;;;8.07;2.78;;;11.80;99.90;;;;;;5036552;28;20053;-28
2023/06/01 08:09:21;;;;;;;9.93;3.03;;;11.70;99.90;;;;;;5035849;28;20128;-27
2023/06/01 08:11:48;;;;;;;9.10;2.90;;;11.60;99.90;;;;;;5036734;28;20044;-29
2023/06/01 08:14:14;;;;;;;7.95;2.47;;;11.60;99.90;;;;;;5037305;28;20107;-27
2023/06/01 08:16:39;;;;;;;8.68;2.90;;;11.50;99.90;;;;;;5036705;28;20049;-28
2023/06/01 08:19:05;;;;;;;9.50;3.13;;;11.40;99.90;;;;;;5018975;28;20053;-28
2023/06/01 08:21:31;;;;;;;12.77;3.13;;;11.40;99.90;;;;;;5018363;28;20048;-27
2023/06/01 08:23:57;;;;;;;12.68;3.22;;;11.40;99.90;;;;;;5036605;28;20132;-28
2023/06/01 08:26:23;;;;;;;13.57;3.22;;;11.30;99.90;;;;;;5036534;28;20128;-28
2023/06/01 08:28:52;;;;;;;12.43;3.33;;;11.40;99.90;;;;;;5035338;28;20049;-28
2023/06/01 08:31:23;;;;;;;13.48;3.30;;;11.40;99.90;;;;;;5035498;28;20116;-28
2023/06/01 08:33:50;;;;;;;12.50;3.95;;;11.40;99.90;;;;;;5037177;28;20052;-28
2023/06/01 08:36:17;;;;;;;14.85;3.42;;;11.50;99.90;;;;;;5035471;28;20052;-28
2023/06/01 08:38:43;;;;;;;8.57;2.72;;;11.60;99.90;;;;;;5036285;28;20049;-28
2023/06/01 08:41:40;;;;;;;9.73;2.97;;;11.70;99.90;;;;;;5018777;28;20042;-28
2023/06/01 08:44:10;;;;;;;7.82;2.42;;;11.70;99.90;;;;;;5034654;28;20066;-28
2023/06/01 08:46:36;;;;;;;9.30;3.42;;;11.80;99.90;;;;;;5036394;28;20049;-28
2023/06/01 08:49:02;;;;;;;8.13;2.00;;;12.10;99.90;;;;;;5034901;28;20516;-29
2023/06/01 08:51:31;;;;;;;7.20;2.65;;;12.30;99.90;;;;;;5036327;28;20046;-29
2023/06/01 08:54:00;;;;;;;8.52;2.15;;;12.40;1.00;;;;;;5034753;28;20053;-28
2023/06/01 08:56:28;;;;;;;12.85;3.15;;;12.40;1.00;;;;;;5035889;28;20049;-28
2023/06/01 08:58:55;;;;;;;10.88;3.45;;;12.50;1.00;;;;;;5035901;28;20054;-30
2023/06/01 09:01:22;;;;;;;8.57;2.70;;;12.50;1.00;;;;;;5035840;28;20033;-28
2023/06/01 09:03:50;;;;;;;11.82;3.35;;;12.50;1.00;;;;;;5035876;28;20051;-28
2023/06/01 09:06:16;;;;;;;13.07;3.05;;;12.60;1.00;;;;;;5035467;28;20466;-29
2023/06/01 09:08:42;;;;;;;8.82;3.03;;;12.80;1.00;;;;;;5036008;28;20049;-30
2023/06/01 09:11:08;;;;;;;8.50;3.00;;;12.90;1.00;;;;;;5018869;28;20410;-28
2023/06/01 09:13:39;;;;;;;10.30;1.98;;;12.80;99.90;;;;;;5017966;28;20051;-29
2023/06/01 09:16:05;;;;;;;8.95;3.17;;;12.90;99.90;;;;;;5035642;28;20137;-28
2023/06/01 09:18:31;;;;;;;9.63;2.63;;;12.90;99.90;;;;;;5035459;28;20053;-30
2023/06/01 09:21:11;;;;;;;10.70;2.50;;;12.90;99.90;;;;;;5035407;28;20477;-28
2023/06/01 09:23:38;;;;;;;10.50;2.80;;;12.80;99.90;;;;;;5035302;28;20058;-28
2023/06/01 09:26:14;;;;;;;12.48;2.83;;;12.90;1.00;;;;;;5035445;28;20049;-28
2023/06/01 09:28:52;;;;;;;9.23;2.60;;;12.90;99.90;;;;;;5034380;28;20477;-28
2023/06/01 09:31:39;;;;;;;12.20;2.78;;;12.90;99.90;;;;;;5036087;28;20111;-28
2023/06/01 09:34:05;;;;;;;6.65;1.85;;;12.90;99.90;;;;;;5035224;28;20041;-29
2023/06/01 09:36:32;;;;;;;10.30;2.58;;;12.80;99.90;;;;;;5033943;28;20516;-28
2023/06/01 09:39:06;;;;;;;6.10;1.98;;;12.90;99.90;;;;;;5034836;28;20468;-29
2023/06/01 09:41:45;;;;;;;6.72;1.80;;;12.80;99.90;;;;;;5018279;28;20052;-29
2023/06/01 09:44:11;;;;;;;10.20;2.20;;;13.00;95.10;;;;;;5035060;28;20132;-28
2023/06/01 09:47:09;;;;;;;9.57;2.40;;;13.30;99.90;;;;;;5032948;28;20045;-28
2023/06/01 09:49:42;;;;;;;7.45;2.30;;;13.50;1.00;;;;;;5035019;28;20055;-28
2023/06/01 09:52:09;;;;;;;10.45;2.60;;;13.60;1.00;;;;;;5034963;28;20060;-28
2023/06/01 09:54:39;;;;;;;8.10;2.38;;;13.50;1.00;;;;;;5035341;28;20140;-28
2023/06/01 09:57:06;;;;;;;8.10;1.95;;;13.60;1.00;;;;;;5034750;28;20085;-28
2023/06/01 09:59:45;;;;;;;8.70;2.42;;;13.60;1.00;;;;;;5034465;28;20639;-30
2023/06/01 10:02:18;;;;;;;7.00;2.10;;;13.50;99.90;;;;;;5034692;28;20142;-28
2023/06/01 10:04:58;;;;;;;9.40;2.03;;;13.70;1.00;;;;;;5035287;28;20041;-29
2023/06/01 10:07:27;;;;;;;10.80;2.03;;;13.70;99.90;;;;;;5034895;28;20215;-28
2023/06/01 10:09:55;;;;;;;7.30;1.58;;;13.70;99.90;;;;;;5034522;28;20175;-28
2023/06/01 10:12:22;;;;;;;7.13;1.75;;;13.80;99.90;;;;;;5017042;28;20508;-28
2023/06/01 10:14:49;;;;;;;9.07;2.05;;;13.60;99.90;;;;;;5035238;28;20120;-28
2023/06/01 10:17:16;;;;;;;11.05;2.05;;;13.60;99.90;;;;;;5017129;28;20045;-28
2023/06/01 10:19:42;;;;;;;8.80;2.08;;;13.50;99.90;;;;;;5034322;28;20050;-28
2023/06/01 10:22:10;;;;;;;6.78;2.03;;;13.50;1.00;;;;;;5033888;28;20049;-29
2023/06/01 10:24:40;;;;;;;13.25;3.10;;;13.60;1.00;;;;;;5035095;28;20091;-28
2023/06/01 10:27:26;;;;;;;9.27;2.63;;;13.60;1.00;;;;;;5034530;28;20051;-28
2023/06/01 10:29:54;;;;;;;10.25;3.17;;;13.60;1.00;;;;;;5034267;28;20055;-28
2023/06/01 10:32:42;;;;;;;7.90;2.20;;;13.70;1.00;;;;;;5033152;28;20099;-28
2023/06/01 10:35:10;;;;;;;8.77;2.40;;;13.40;1.00;;;;;;5034354;28;20134;-29
2023/06/01 10:37:36;;;;;;;10.13;2.40;;;13.40;1.00;;;;;;5032592;28;20511;-28
2023/06/01 10:40:24;;;;;;;10.00;1.95;;;13.30;1.00;;;;;;5033814;28;20049;-28
2023/06/01 10:42:50;;;;;;;8.65;2.17;;;13.30;1.00;;;;;;5034330;28;20374;-28
2023/06/01 10:45:45;;;;;;;11.07;2.63;;;13.40;1.00;;;;;;5016358;28;20111;-28
2023/06/01 10:48:12;;;;;;;9.02;2.38;;;13.70;1.00;;;;;;5029210;28;20140;-28
2023/06/01 10:50:39;;;;;;;9.25;2.22;;;13.80;1.00;;;;;;5033578;28;20515;-28
2023/06/01 10:53:25;;;;;;;5.93;1.90;;;14.00;99.90;;;;;;5033856;28;20133;-28
2023/06/01 10:56:17;;;;;;;8.77;2.00;;;13.90;99.90;;;;;;5033884;28;20041;-28
2023/06/01 10:58:43;;;;;;;5.00;2.15;;;14.10;99.90;;;;;;5028191;28;20087;-28
2023/06/01 11:01:10;;;;;;;8.00;1.80;;;14.10;99.90;;;;;;5033626;28;20474;-28
2023/06/01 11:03:47;;;;;;;7.13;2.58;;;13.80;99.90;;;;;;5033698;28;20440;-28
2023/06/01 11:06:31;;;;;;;9.90;2.10;;;14.00;99.90;;;;;;5033760;28;20045;-28
2023/06/01 11:08:59;;;;;;;10.05;2.13;;;14.30;1.90;;;;;;5033526;28;20079;-28
2023/06/01 11:11:51;;;;;;;8.70;2.15;;;14.50;1.00;;;;;;5033863;28;20042;-28
2023/06/01 11:14:25;;;;;;;9.10;2.65;;;14.50;1.00;;;;;;5034435;28;20393;-28
2023/06/01 11:16:54;;;;;;;8.05;2.00;;;14.20;1.00;;;;;;5033220;28;20512;-28
2023/06/01 11:19:24;;;;;;;7.90;2.47;;;14.10;1.00;;;;;;5033418;28;20041;-28
2023/06/01 11:22:02;;;;;;;5.88;2.10;;;14.10;1.00;;;;;;5033665;28;20547;-28
2023/06/01 11:24:35;;;;;;;8.40;2.20;;;13.80;1.00;;;;;;5016836;28;20128;-28
2023/06/01 11:27:10;;;;;;;8.13;2.35;;;14.10;7.90;;;;;;5034069;28;20132;-28
2023/06/01 11:29:37;;;;;;;6.15;2.53;;;14.20;1.00;;;;;;5033538;28;20049;-29
2023/06/01 11:32:07;;;;;;;8.32;2.67;;;14.30;1.00;;;;;;5031926;28;20616;-28
2023/06/01 11:34:38;;;;;;;8.90;2.72;;;14.30;49.50;;;;;;5032295;28;20099;-28
2023/06/01 11:37:05;;;;;;;6.13;2.60;;;14.40;34.70;;;;;;5033391;28;20049;-29
2023/06/01 11:39:31;;;;;;;5.35;1.80;;;14.40;73.40;;;;;;5033624;28;20068;-29
2023/06/01 11:42:15;;;;;;;7.75;1.98;;;14.30;45.80;;;;;;5032871;28;20103;-28
2023/06/01 11:44:48;;;;;;;10.45;2.30;;;14.20;83.70;;;;;;5033552;28;20366;-29
2023/06/01 11:47:14;;;;;;;9.57;2.50;;;14.20;86.70;;;;;;5033319;28;20477;-28
2023/06/01 11:49:46;;;;;;;5.93;2.08;;;14.30;16.20;;;;;;5033775;28;20051;-28
2023/06/01 11:52:13;;;;;;;11.80;2.85;;;14.10;12.00;;;;;;5034112;28;20128;-28
2023/06/01 11:54:39;;;;;;;6.40;2.28;;;14.20;87.10;;;;;;5032501;28;20485;-29
2023/06/01 11:57:05;;;;;;;12.48;2.72;;;14.40;93.90;;;;;;5033192;28;20132;-28
2023/06/01 11:59:38;;;;;;;10.82;2.45;;;14.40;40.30;;;;;;5033364;28;20041;-29
2023/06/01 12:02:22;;;;;;;17.55;4.47;;;14.10;62.70;;;;;;5031908;28;20297;-28
2023/06/01 12:05:08;;;;;;;10.85;3.42;;;13.90;99.90;;;;;;5032758;28;20385;-29
2023/06/01 12:07:44;;;;;;;7.78;2.20;;;13.90;99.90;;;;;;5032043;28;20484;-29
2023/06/01 12:10:14;;;;;;;8.18;2.10;;;13.90;99.90;;;;;;5035340;28;20042;-28
2023/06/01 12:12:41;;;;;;;8.43;1.70;;;13.90;99.90;;;;;;5037152;28;20052;-28
2023/06/01 12:15:08;;;;;;;6.18;2.00;;;13.80;99.90;;;;;;5037046;28;20068;-29
2023/06/01 12:17:50;;;;;;;8.27;2.40;;;14.00;99.90;;;;;;5035440;28;20129;-28
2023/06/01 12:20:36;;;;;;;7.35;2.13;;;14.10;99.90;;;;;;5035556;28;20084;-28
2023/06/01 12:23:23;;;;;;;6.85;2.40;;;14.20;99.90;;;;;;5035337;28;20053;-29
2023/06/01 12:25:55;;;;;;;6.47;1.60;;;14.20;99.90;;;;;;5036007;28;20049;-28
2023/06/01 12:28:22;;;;;;;7.57;1.70;;;14.20;99.90;;;;;;5036115;28;20421;-29
2023/06/01 12:30:48;;;;;;;7.97;1.70;;;14.30;99.90;;;;;;5036971;28;20081;-28
2023/06/01 12:33:36;;;;;;;4.80;1.45;;;14.50;99.90;;;;;;5036349;28;20045;-28
2023/06/01 12:36:04;;;;;;;4.85;1.60;;;14.80;69.20;;;;;;5036990;28;20049;-28
2023/06/01 12:38:37;;;;;;;9.40;2.47;;;14.50;49.10;;;;;;5035934;28;20045;-28
2023/06/01 12:41:11;;;;;;;9.75;2.70;;;14.40;99.90;;;;;;5036200;28;20484;-28
2023/06/01 12:43:38;;;;;;;9.23;3.22;;;14.10;99.90;;;;;;5035101;28;20042;-28
2023/06/01 12:46:07;;;;;;;10.68;3.28;;;13.90;1.00;;;;;;5036201;28;20045;-28
2023/06/01 12:48:36;;;;;;;8.38;2.80;;;13.80;1.00;;;;;;5036095;28;20049;-28
2023/06/01 12:51:03;;;;;;;7.82;2.42;;;13.90;1.00;;;;;;5034911;28;20051;-28
2023/06/01 12:53:29;;;;;;;7.95;2.70;;;13.60;1.00;;;;;;5035047;28;20551;-28